sensor_id;sensor_type;location;lat;lon;timestamp;P1;durP1;ratioP1;P2;durP2;ratioP2
65162;SDS011;51751;55.714;37.436;2022-08-19T00:02:13;6.72;;;4.32;;
65162;SDS011;51751;55.714;37.436;2022-08-19T00:04:39;9.13;;;3.90;;
65162;SDS011;51751;55.714;37.436;2022-08-19T00:07:05;9.65;;;3.90;;
65162;SDS011;51751;55.714;37.436;2022-08-19T00:09:31;7.40;;;3.35;;
65162;SDS011;51751;55.714;37.436;2022-08-19T00:11:58;7.88;;;3.33;;
65162;SDS011;51751;55.714;37.436;2022-08-19T00:14:25;14.50;;;3.67;;
65162;SDS011;51751;55.714;37.436;2022-08-19T00:16:52;8.43;;;3.42;;
65162;SDS011;51751;55.714;37.436;2022-08-19T00:19:19;8.93;;;3.25;;
65162;SDS011;51751;55.714;37.436;2022-08-19T00:21:46;6.65;;;3.30;;
65162;SDS011;51751;55.714;37.436;2022-08-19T00:24:13;5.00;;;3.20;;
65162;SDS011;51751;55.714;37.436;2022-08-19T00:26:41;5.35;;;3.45;;
65162;SDS011;51751;55.714;37.436;2022-08-19T00:29:08;12.10;;;3.63;;
65162;SDS011;51751;55.714;37.436;2022-08-19T00:31:36;7.32;;;3.13;;
65162;SDS011;51751;55.714;37.436;2022-08-19T00:34:02;6.47;;;3.13;;
65162;SDS011;51751;55.714;37.436;2022-08-19T00:36:28;12.25;;;3.40;;
65162;SDS011;51751;55.714;37.436;2022-08-19T00:38:54;11.25;;;3.40;;
65162;SDS011;51751;55.714;37.436;2022-08-19T00:41:22;9.48;;;3.60;;
65162;SDS011;51751;55.714;37.436;2022-08-19T00:44:02;7.22;;;3.72;;
65162;SDS011;51751;55.714;37.436;2022-08-19T00:46:28;5.38;;;3.50;;
65162;SDS011;51751;55.714;37.436;2022-08-19T00:48:54;6.82;;;3.60;;
65162;SDS011;51751;55.714;37.436;2022-08-19T00:51:21;10.13;;;3.60;;
65162;SDS011;51751;55.714;37.436;2022-08-19T00:53:48;8.55;;;3.60;;
65162;SDS011;51751;55.714;37.436;2022-08-19T00:56:14;10.25;;;3.60;;
65162;SDS011;51751;55.714;37.436;2022-08-19T00:58:41;11.95;;;3.78;;
65162;SDS011;51751;55.714;37.436;2022-08-19T01:03:50;11.50;;;3.67;;
65162;SDS011;51751;55.714;37.436;2022-08-19T01:06:16;11.75;;;3.90;;
65162;SDS011;51751;55.714;37.436;2022-08-19T01:08:42;15.85;;;4.07;;
65162;SDS011;51751;55.714;37.436;2022-08-19T01:11:08;8.38;;;3.70;;
65162;SDS011;51751;55.714;37.436;2022-08-19T01:13:36;7.78;;;4.07;;
65162;SDS011;51751;55.714;37.436;2022-08-19T01:16:06;9.88;;;3.80;;
65162;SDS011;51751;55.714;37.436;2022-08-19T01:18:38;7.93;;;3.75;;
65162;SDS011;51751;55.714;37.436;2022-08-19T01:21:45;10.95;;;3.60;;
65162;SDS011;51751;55.714;37.436;2022-08-19T01:24:15;13.43;;;3.78;;
65162;SDS011;51751;55.714;37.436;2022-08-19T01:26:42;7.82;;;3.53;;
65162;SDS011;51751;55.714;37.436;2022-08-19T01:29:10;11.63;;;3.55;;
65162;SDS011;51751;55.714;37.436;2022-08-19T01:31:37;10.10;;;3.63;;
65162;SDS011;51751;55.714;37.436;2022-08-19T01:34:04;6.35;;;3.70;;
65162;SDS011;51751;55.714;37.436;2022-08-19T01:36:49;5.40;;;3.78;;
65162;SDS011;51751;55.714;37.436;2022-08-19T01:39:17;8.15;;;4.10;;
65162;SDS011;51751;55.714;37.436;2022-08-19T01:42:03;13.98;;;4.00;;
65162;SDS011;51751;55.714;37.436;2022-08-19T01:44:29;11.90;;;4.38;;
65162;SDS011;51751;55.714;37.436;2022-08-19T01:46:56;8.45;;;3.60;;
65162;SDS011;51751;55.714;37.436;2022-08-19T01:49:22;8.02;;;3.53;;
65162;SDS011;51751;55.714;37.436;2022-08-19T01:51:49;9.40;;;3.60;;
65162;SDS011;51751;55.714;37.436;2022-08-19T01:54:16;5.60;;;3.40;;
65162;SDS011;51751;55.714;37.436;2022-08-19T01:56:42;22.48;;;4.65;;
65162;SDS011;51751;55.714;37.436;2022-08-19T01:59:13;7.35;;;3.30;;
65162;SDS011;51751;55.714;37.436;2022-08-19T02:01:40;10.07;;;3.60;;
65162;SDS011;51751;55.714;37.436;2022-08-19T02:04:06;7.22;;;3.40;;
65162;SDS011;51751;55.714;37.436;2022-08-19T02:06:33;11.27;;;3.60;;
65162;SDS011;51751;55.714;37.436;2022-08-19T02:08:59;6.93;;;3.60;;
65162;SDS011;51751;55.714;37.436;2022-08-19T02:11:27;7.45;;;4.03;;
65162;SDS011;51751;55.714;37.436;2022-08-19T02:13:57;11.88;;;3.72;;
65162;SDS011;51751;55.714;37.436;2022-08-19T02:16:24;8.27;;;3.80;;
65162;SDS011;51751;55.714;37.436;2022-08-19T02:18:50;11.98;;;3.70;;
65162;SDS011;51751;55.714;37.436;2022-08-19T02:21:16;11.77;;;3.97;;
65162;SDS011;51751;55.714;37.436;2022-08-19T02:23:43;11.48;;;3.92;;
65162;SDS011;51751;55.714;37.436;2022-08-19T02:26:09;14.43;;;4.32;;
65162;SDS011;51751;55.714;37.436;2022-08-19T02:28:36;12.38;;;3.60;;
65162;SDS011;51751;55.714;37.436;2022-08-19T02:31:02;10.57;;;3.78;;
65162;SDS011;51751;55.714;37.436;2022-08-19T02:33:29;10.77;;;3.97;;
65162;SDS011;51751;55.714;37.436;2022-08-19T02:35:55;9.23;;;4.15;;
65162;SDS011;51751;55.714;37.436;2022-08-19T02:38:20;10.23;;;3.95;;
65162;SDS011;51751;55.714;37.436;2022-08-19T02:40:57;8.13;;;4.00;;
65162;SDS011;51751;55.714;37.436;2022-08-19T02:43:28;15.65;;;4.13;;
65162;SDS011;51751;55.714;37.436;2022-08-19T02:45:55;7.43;;;3.72;;
65162;SDS011;51751;55.714;37.436;2022-08-19T02:48:22;10.65;;;4.20;;
65162;SDS011;51751;55.714;37.436;2022-08-19T02:50:50;7.70;;;4.18;;
65162;SDS011;51751;55.714;37.436;2022-08-19T02:53:23;9.25;;;4.30;;
65162;SDS011;51751;55.714;37.436;2022-08-19T02:55:50;11.25;;;4.13;;
65162;SDS011;51751;55.714;37.436;2022-08-19T02:58:16;9.63;;;4.15;;
65162;SDS011;51751;55.714;37.436;2022-08-19T03:00:47;16.23;;;4.15;;
65162;SDS011;51751;55.714;37.436;2022-08-19T03:03:14;11.25;;;3.95;;
65162;SDS011;51751;55.714;37.436;2022-08-19T03:05:41;7.03;;;3.30;;
65162;SDS011;51751;55.714;37.436;2022-08-19T03:08:07;8.55;;;3.92;;
65162;SDS011;51751;55.714;37.436;2022-08-19T03:10:44;8.25;;;3.53;;
65162;SDS011;51751;55.714;37.436;2022-08-19T03:13:15;14.15;;;4.10;;
65162;SDS011;51751;55.714;37.436;2022-08-19T03:15:44;16.90;;;4.20;;
65162;SDS011;51751;55.714;37.436;2022-08-19T03:18:11;18.30;;;4.18;;
65162;SDS011;51751;55.714;37.436;2022-08-19T03:20:44;12.48;;;4.20;;
65162;SDS011;51751;55.714;37.436;2022-08-19T03:23:13;10.63;;;4.20;;
65162;SDS011;51751;55.714;37.436;2022-08-19T03:25:46;11.23;;;4.40;;
65162;SDS011;51751;55.714;37.436;2022-08-19T03:28:14;7.95;;;4.00;;
65162;SDS011;51751;55.714;37.436;2022-08-19T03:30:40;12.10;;;4.15;;
65162;SDS011;51751;55.714;37.436;2022-08-19T03:33:08;10.48;;;4.13;;
65162;SDS011;51751;55.714;37.436;2022-08-19T03:35:35;11.00;;;3.95;;
65162;SDS011;51751;55.714;37.436;2022-08-19T03:38:04;10.85;;;4.28;;
65162;SDS011;51751;55.714;37.436;2022-08-19T03:40:32;9.63;;;3.92;;
65162;SDS011;51751;55.714;37.436;2022-08-19T03:43:00;10.52;;;3.75;;
65162;SDS011;51751;55.714;37.436;2022-08-19T03:45:26;11.65;;;3.80;;
65162;SDS011;51751;55.714;37.436;2022-08-19T03:47:53;9.95;;;4.45;;
65162;SDS011;51751;55.714;37.436;2022-08-19T03:50:18;9.57;;;3.92;;
65162;SDS011;51751;55.714;37.436;2022-08-19T03:52:49;9.63;;;4.03;;
65162;SDS011;51751;55.714;37.436;2022-08-19T03:55:38;9.63;;;4.05;;
65162;SDS011;51751;55.714;37.436;2022-08-19T03:58:06;12.13;;;3.80;;
65162;SDS011;51751;55.714;37.436;2022-08-19T04:00:32;14.55;;;3.97;;
65162;SDS011;51751;55.714;37.436;2022-08-19T04:02:58;8.20;;;4.03;;
65162;SDS011;51751;55.714;37.436;2022-08-19T04:05:26;13.93;;;3.80;;
65162;SDS011;51751;55.714;37.436;2022-08-19T04:07:53;6.97;;;3.88;;
65162;SDS011;51751;55.714;37.436;2022-08-19T04:10:22;7.43;;;3.85;;
65162;SDS011;51751;55.714;37.436;2022-08-19T04:12:49;7.90;;;3.72;;
65162;SDS011;51751;55.714;37.436;2022-08-19T04:15:15;7.70;;;3.80;;
65162;SDS011;51751;55.714;37.436;2022-08-19T04:17:41;9.80;;;3.72;;
65162;SDS011;51751;55.714;37.436;2022-08-19T04:20:07;8.48;;;3.95;;
65162;SDS011;51751;55.714;37.436;2022-08-19T04:22:33;18.05;;;3.90;;
65162;SDS011;51751;55.714;37.436;2022-08-19T04:24:58;8.05;;;3.95;;
65162;SDS011;51751;55.714;37.436;2022-08-19T04:27:26;9.25;;;4.03;;
65162;SDS011;51751;55.714;37.436;2022-08-19T04:29:52;10.85;;;3.80;;
65162;SDS011;51751;55.714;37.436;2022-08-19T04:32:18;11.52;;;3.88;;
65162;SDS011;51751;55.714;37.436;2022-08-19T04:34:44;14.82;;;4.15;;
65162;SDS011;51751;55.714;37.436;2022-08-19T04:37:10;6.72;;;3.90;;
65162;SDS011;51751;55.714;37.436;2022-08-19T04:39:37;12.93;;;4.20;;
65162;SDS011;51751;55.714;37.436;2022-08-19T04:42:21;7.07;;;3.90;;
65162;SDS011;51751;55.714;37.436;2022-08-19T04:45:06;13.00;;;4.35;;
65162;SDS011;51751;55.714;37.436;2022-08-19T04:47:38;10.82;;;4.10;;
65162;SDS011;51751;55.714;37.436;2022-08-19T04:50:06;12.30;;;3.88;;
65162;SDS011;51751;55.714;37.436;2022-08-19T04:52:33;8.18;;;3.60;;
65162;SDS011;51751;55.714;37.436;2022-08-19T04:54:59;16.35;;;4.50;;
65162;SDS011;51751;55.714;37.436;2022-08-19T04:57:25;8.48;;;4.07;;
65162;SDS011;51751;55.714;37.436;2022-08-19T04:59:54;8.00;;;4.18;;
65162;SDS011;51751;55.714;37.436;2022-08-19T05:02:21;11.23;;;4.70;;
65162;SDS011;51751;55.714;37.436;2022-08-19T05:04:55;13.73;;;4.50;;
65162;SDS011;51751;55.714;37.436;2022-08-19T05:07:22;8.10;;;4.07;;
65162;SDS011;51751;55.714;37.436;2022-08-19T05:09:48;10.75;;;4.25;;
65162;SDS011;51751;55.714;37.436;2022-08-19T05:12:14;17.27;;;4.38;;
65162;SDS011;51751;55.714;37.436;2022-08-19T05:14:40;11.20;;;4.30;;
65162;SDS011;51751;55.714;37.436;2022-08-19T05:17:06;19.13;;;4.65;;
65162;SDS011;51751;55.714;37.436;2022-08-19T05:19:32;9.77;;;4.15;;
65162;SDS011;51751;55.714;37.436;2022-08-19T05:22:16;12.20;;;4.18;;
65162;SDS011;51751;55.714;37.436;2022-08-19T05:25:10;8.88;;;4.03;;
65162;SDS011;51751;55.714;37.436;2022-08-19T05:27:40;13.38;;;4.40;;
65162;SDS011;51751;55.714;37.436;2022-08-19T05:30:09;9.40;;;4.22;;
65162;SDS011;51751;55.714;37.436;2022-08-19T05:32:36;13.48;;;4.25;;
65162;SDS011;51751;55.714;37.436;2022-08-19T05:35:03;9.52;;;4.15;;
65162;SDS011;51751;55.714;37.436;2022-08-19T05:37:30;8.70;;;4.18;;
65162;SDS011;51751;55.714;37.436;2022-08-19T05:39:56;8.43;;;4.28;;
65162;SDS011;51751;55.714;37.436;2022-08-19T05:42:22;13.07;;;4.53;;
65162;SDS011;51751;55.714;37.436;2022-08-19T05:44:48;13.30;;;4.40;;
65162;SDS011;51751;55.714;37.436;2022-08-19T05:47:15;11.68;;;4.07;;
65162;SDS011;51751;55.714;37.436;2022-08-19T05:49:42;12.63;;;3.85;;
65162;SDS011;51751;55.714;37.436;2022-08-19T05:52:09;10.45;;;4.22;;
65162;SDS011;51751;55.714;37.436;2022-08-19T05:54:37;12.90;;;4.30;;
65162;SDS011;51751;55.714;37.436;2022-08-19T05:57:25;9.43;;;3.90;;
65162;SDS011;51751;55.714;37.436;2022-08-19T05:59:51;11.50;;;4.15;;
65162;SDS011;51751;55.714;37.436;2022-08-19T06:02:21;10.07;;;3.85;;
65162;SDS011;51751;55.714;37.436;2022-08-19T06:04:47;20.83;;;4.55;;
65162;SDS011;51751;55.714;37.436;2022-08-19T06:07:14;7.65;;;3.90;;
65162;SDS011;51751;55.714;37.436;2022-08-19T06:09:40;12.40;;;3.97;;
65162;SDS011;51751;55.714;37.436;2022-08-19T06:12:06;15.32;;;4.32;;
65162;SDS011;51751;55.714;37.436;2022-08-19T06:14:33;11.75;;;4.10;;
65162;SDS011;51751;55.714;37.436;2022-08-19T06:17:33;14.13;;;4.32;;
65162;SDS011;51751;55.714;37.436;2022-08-19T06:20:01;10.15;;;4.50;;
65162;SDS011;51751;55.714;37.436;2022-08-19T06:22:38;12.53;;;3.97;;
65162;SDS011;51751;55.714;37.436;2022-08-19T06:25:05;13.85;;;4.60;;
65162;SDS011;51751;55.714;37.436;2022-08-19T06:27:31;11.10;;;3.78;;
65162;SDS011;51751;55.714;37.436;2022-08-19T06:29:58;10.25;;;3.58;;
65162;SDS011;51751;55.714;37.436;2022-08-19T06:32:24;13.88;;;3.85;;
65162;SDS011;51751;55.714;37.436;2022-08-19T06:34:50;11.05;;;3.72;;
65162;SDS011;51751;55.714;37.436;2022-08-19T06:37:16;9.48;;;4.22;;
65162;SDS011;51751;55.714;37.436;2022-08-19T06:39:43;16.25;;;3.78;;
65162;SDS011;51751;55.714;37.436;2022-08-19T06:42:09;8.90;;;3.78;;
65162;SDS011;51751;55.714;37.436;2022-08-19T06:44:39;13.88;;;3.47;;
65162;SDS011;51751;55.714;37.436;2022-08-19T06:47:24;11.18;;;3.55;;
65162;SDS011;51751;55.714;37.436;2022-08-19T06:49:53;14.20;;;3.85;;
65162;SDS011;51751;55.714;37.436;2022-08-19T06:52:31;9.70;;;3.88;;
65162;SDS011;51751;55.714;37.436;2022-08-19T06:55:02;9.00;;;3.50;;
65162;SDS011;51751;55.714;37.436;2022-08-19T06:57:44;9.23;;;3.88;;
65162;SDS011;51751;55.714;37.436;2022-08-19T07:00:11;9.27;;;3.75;;
65162;SDS011;51751;55.714;37.436;2022-08-19T07:02:41;10.18;;;4.00;;
65162;SDS011;51751;55.714;37.436;2022-08-19T07:05:08;15.15;;;3.92;;
65162;SDS011;51751;55.714;37.436;2022-08-19T07:07:35;11.15;;;4.07;;
65162;SDS011;51751;55.714;37.436;2022-08-19T07:10:01;12.35;;;3.92;;
65162;SDS011;51751;55.714;37.436;2022-08-19T07:12:31;16.65;;;4.20;;
65162;SDS011;51751;55.714;37.436;2022-08-19T07:17:35;9.23;;;3.60;;
65162;SDS011;51751;55.714;37.436;2022-08-19T07:20:05;13.65;;;3.70;;
65162;SDS011;51751;55.714;37.436;2022-08-19T07:22:33;8.95;;;3.83;;
65162;SDS011;51751;55.714;37.436;2022-08-19T07:24:59;15.02;;;4.20;;
65162;SDS011;51751;55.714;37.436;2022-08-19T07:27:25;16.02;;;4.10;;
65162;SDS011;51751;55.714;37.436;2022-08-19T07:29:52;12.13;;;3.78;;
65162;SDS011;51751;55.714;37.436;2022-08-19T07:32:21;14.20;;;4.38;;
65162;SDS011;51751;55.714;37.436;2022-08-19T07:34:48;9.35;;;3.70;;
65162;SDS011;51751;55.714;37.436;2022-08-19T07:37:13;11.48;;;3.40;;
65162;SDS011;51751;55.714;37.436;2022-08-19T07:39:39;15.63;;;3.80;;
65162;SDS011;51751;55.714;37.436;2022-08-19T07:42:09;12.85;;;4.18;;
65162;SDS011;51751;55.714;37.436;2022-08-19T07:44:36;11.20;;;3.75;;
65162;SDS011;51751;55.714;37.436;2022-08-19T07:47:03;14.32;;;4.05;;
65162;SDS011;51751;55.714;37.436;2022-08-19T07:49:30;11.63;;;3.90;;
65162;SDS011;51751;55.714;37.436;2022-08-19T07:52:01;10.27;;;3.42;;
65162;SDS011;51751;55.714;37.436;2022-08-19T07:54:32;11.52;;;3.72;;
65162;SDS011;51751;55.714;37.436;2022-08-19T07:57:01;20.25;;;3.85;;
65162;SDS011;51751;55.714;37.436;2022-08-19T07:59:28;9.45;;;3.13;;
65162;SDS011;51751;55.714;37.436;2022-08-19T08:01:54;20.63;;;3.47;;
65162;SDS011;51751;55.714;37.436;2022-08-19T08:04:21;14.30;;;3.45;;
65162;SDS011;51751;55.714;37.436;2022-08-19T08:07:06;12.43;;;2.92;;
65162;SDS011;51751;55.714;37.436;2022-08-19T08:09:51;9.50;;;3.58;;
65162;SDS011;51751;55.714;37.436;2022-08-19T08:12:20;18.13;;;3.38;;
65162;SDS011;51751;55.714;37.436;2022-08-19T08:15:10;9.70;;;2.92;;
65162;SDS011;51751;55.714;37.436;2022-08-19T08:17:41;11.07;;;3.20;;
65162;SDS011;51751;55.714;37.436;2022-08-19T08:20:08;11.05;;;2.90;;
65162;SDS011;51751;55.714;37.436;2022-08-19T08:22:35;7.07;;;2.83;;
65162;SDS011;51751;55.714;37.436;2022-08-19T08:25:21;11.47;;;3.00;;
65162;SDS011;51751;55.714;37.436;2022-08-19T08:27:49;10.73;;;2.97;;
65162;SDS011;51751;55.714;37.436;2022-08-19T08:30:17;12.05;;;3.58;;
65162;SDS011;51751;55.714;37.436;2022-08-19T08:32:47;9.18;;;3.25;;
65162;SDS011;51751;55.714;37.436;2022-08-19T08:35:14;14.38;;;3.38;;
65162;SDS011;51751;55.714;37.436;2022-08-19T08:37:42;15.25;;;3.00;;
65162;SDS011;51751;55.714;37.436;2022-08-19T08:40:12;11.55;;;3.40;;
65162;SDS011;51751;55.714;37.436;2022-08-19T08:46:33;8.23;;;3.40;;
65162;SDS011;51751;55.714;37.436;2022-08-19T08:48:48;13.17;;;3.30;;
65162;SDS011;51751;55.714;37.436;2022-08-19T08:51:36;9.80;;;3.20;;
65162;SDS011;51751;55.714;37.436;2022-08-19T08:54:14;22.38;;;3.28;;
65162;SDS011;51751;55.714;37.436;2022-08-19T08:56:42;14.10;;;3.10;;
65162;SDS011;51751;55.714;37.436;2022-08-19T08:59:28;13.20;;;3.33;;
65162;SDS011;51751;55.714;37.436;2022-08-19T09:02:01;8.20;;;3.03;;
65162;SDS011;51751;55.714;37.436;2022-08-19T09:04:27;10.00;;;2.90;;
65162;SDS011;51751;55.714;37.436;2022-08-19T09:09:34;15.45;;;3.10;;
65162;SDS011;51751;55.714;37.436;2022-08-19T09:12:06;9.55;;;2.88;;
65162;SDS011;51751;55.714;37.436;2022-08-19T09:14:50;10.05;;;2.97;;
65162;SDS011;51751;55.714;37.436;2022-08-19T09:17:23;7.30;;;2.88;;
65162;SDS011;51751;55.714;37.436;2022-08-19T09:19:57;15.55;;;3.15;;
65162;SDS011;51751;55.714;37.436;2022-08-19T09:22:28;9.10;;;2.80;;
65162;SDS011;51751;55.714;37.436;2022-08-19T09:24:54;12.60;;;3.10;;
65162;SDS011;51751;55.714;37.436;2022-08-19T09:27:21;40.47;;;4.15;;
65162;SDS011;51751;55.714;37.436;2022-08-19T09:29:50;18.00;;;3.38;;
65162;SDS011;51751;55.714;37.436;2022-08-19T09:32:16;9.77;;;3.10;;
65162;SDS011;51751;55.714;37.436;2022-08-19T09:34:43;8.88;;;2.90;;
65162;SDS011;51751;55.714;37.436;2022-08-19T09:37:09;12.75;;;3.10;;
65162;SDS011;51751;55.714;37.436;2022-08-19T09:39:35;10.48;;;3.50;;
65162;SDS011;51751;55.714;37.436;2022-08-19T09:42:01;11.05;;;3.28;;
65162;SDS011;51751;55.714;37.436;2022-08-19T09:44:29;14.75;;;3.60;;
65162;SDS011;51751;55.714;37.436;2022-08-19T09:46:55;14.68;;;3.58;;
65162;SDS011;51751;55.714;37.436;2022-08-19T09:49:21;13.70;;;3.65;;
65162;SDS011;51751;55.714;37.436;2022-08-19T09:51:53;39.70;;;5.13;;
65162;SDS011;51751;55.714;37.436;2022-08-19T09:54:21;28.58;;;4.38;;
65162;SDS011;51751;55.714;37.436;2022-08-19T09:56:47;11.90;;;3.35;;
65162;SDS011;51751;55.714;37.436;2022-08-19T09:59:13;8.90;;;3.40;;
65162;SDS011;51751;55.714;37.436;2022-08-19T10:01:42;9.98;;;3.35;;
65162;SDS011;51751;55.714;37.436;2022-08-19T10:04:08;15.35;;;3.22;;
65162;SDS011;51751;55.714;37.436;2022-08-19T10:06:37;7.88;;;2.88;;
65162;SDS011;51751;55.714;37.436;2022-08-19T10:09:06;8.95;;;3.10;;
65162;SDS011;51751;55.714;37.436;2022-08-19T10:11:35;6.68;;;2.70;;
65162;SDS011;51751;55.714;37.436;2022-08-19T10:14:15;7.20;;;2.30;;
65162;SDS011;51751;55.714;37.436;2022-08-19T10:16:42;9.48;;;2.30;;
65162;SDS011;51751;55.714;37.436;2022-08-19T10:19:08;10.13;;;2.10;;
65162;SDS011;51751;55.714;37.436;2022-08-19T10:21:37;9.45;;;2.53;;
65162;SDS011;51751;55.714;37.436;2022-08-19T10:24:05;8.50;;;2.20;;
65162;SDS011;51751;55.714;37.436;2022-08-19T10:26:36;18.35;;;2.60;;
65162;SDS011;51751;55.714;37.436;2022-08-19T10:29:06;14.20;;;2.50;;
65162;SDS011;51751;55.714;37.436;2022-08-19T10:31:33;10.63;;;2.90;;
65162;SDS011;51751;55.714;37.436;2022-08-19T10:34:00;8.95;;;2.55;;
65162;SDS011;51751;55.714;37.436;2022-08-19T10:36:30;14.00;;;3.00;;
65162;SDS011;51751;55.714;37.436;2022-08-19T10:39:00;14.25;;;2.58;;
65162;SDS011;51751;55.714;37.436;2022-08-19T10:41:29;8.20;;;2.60;;
65162;SDS011;51751;55.714;37.436;2022-08-19T10:43:58;8.63;;;2.42;;
65162;SDS011;51751;55.714;37.436;2022-08-19T10:46:29;13.05;;;2.47;;
65162;SDS011;51751;55.714;37.436;2022-08-19T10:48:58;9.13;;;2.30;;
65162;SDS011;51751;55.714;37.436;2022-08-19T10:51:24;10.18;;;2.50;;
65162;SDS011;51751;55.714;37.436;2022-08-19T10:54:12;6.53;;;2.30;;
65162;SDS011;51751;55.714;37.436;2022-08-19T10:56:38;14.75;;;2.60;;
65162;SDS011;51751;55.714;37.436;2022-08-19T10:59:25;13.75;;;2.40;;
65162;SDS011;51751;55.714;37.436;2022-08-19T11:01:59;8.27;;;2.42;;
65162;SDS011;51751;55.714;37.436;2022-08-19T11:04:25;12.95;;;2.35;;
65162;SDS011;51751;55.714;37.436;2022-08-19T11:06:52;20.38;;;2.72;;
65162;SDS011;51751;55.714;37.436;2022-08-19T11:09:19;12.15;;;2.80;;
65162;SDS011;51751;55.714;37.436;2022-08-19T11:11:46;12.25;;;2.60;;
65162;SDS011;51751;55.714;37.436;2022-08-19T11:14:17;13.77;;;2.70;;
65162;SDS011;51751;55.714;37.436;2022-08-19T11:16:46;13.13;;;2.63;;
65162;SDS011;51751;55.714;37.436;2022-08-19T11:19:17;15.10;;;2.70;;
65162;SDS011;51751;55.714;37.436;2022-08-19T11:21:48;10.10;;;2.60;;
65162;SDS011;51751;55.714;37.436;2022-08-19T11:24:22;4.35;;;2.17;;
65162;SDS011;51751;55.714;37.436;2022-08-19T11:26:51;7.97;;;2.40;;
65162;SDS011;51751;55.714;37.436;2022-08-19T11:29:19;8.63;;;2.88;;
65162;SDS011;51751;55.714;37.436;2022-08-19T11:31:53;10.07;;;2.47;;
65162;SDS011;51751;55.714;37.436;2022-08-19T11:34:20;11.35;;;2.35;;
65162;SDS011;51751;55.714;37.436;2022-08-19T11:36:48;8.75;;;2.30;;
65162;SDS011;51751;55.714;37.436;2022-08-19T11:39:18;10.15;;;2.50;;
65162;SDS011;51751;55.714;37.436;2022-08-19T11:41:45;8.32;;;2.60;;
65162;SDS011;51751;55.714;37.436;2022-08-19T11:44:12;18.33;;;2.90;;
65162;SDS011;51751;55.714;37.436;2022-08-19T11:46:51;11.70;;;3.08;;
65162;SDS011;51751;55.714;37.436;2022-08-19T11:49:18;9.43;;;2.38;;
65162;SDS011;51751;55.714;37.436;2022-08-19T11:51:45;5.25;;;2.25;;
65162;SDS011;51751;55.714;37.436;2022-08-19T11:54:12;9.05;;;2.25;;
65162;SDS011;51751;55.714;37.436;2022-08-19T11:56:40;12.43;;;2.65;;
65162;SDS011;51751;55.714;37.436;2022-08-19T11:59:07;9.45;;;2.83;;
65162;SDS011;51751;55.714;37.436;2022-08-19T12:01:36;13.43;;;2.70;;
65162;SDS011;51751;55.714;37.436;2022-08-19T12:04:02;8.27;;;2.75;;
65162;SDS011;51751;55.714;37.436;2022-08-19T12:06:31;8.48;;;2.50;;
65162;SDS011;51751;55.714;37.436;2022-08-19T12:09:01;7.05;;;2.75;;
65162;SDS011;51751;55.714;37.436;2022-08-19T12:11:40;7.95;;;2.50;;
65162;SDS011;51751;55.714;37.436;2022-08-19T12:14:09;7.28;;;2.47;;
65162;SDS011;51751;55.714;37.436;2022-08-19T12:16:40;11.43;;;2.60;;
65162;SDS011;51751;55.714;37.436;2022-08-19T12:19:10;7.35;;;2.90;;
65162;SDS011;51751;55.714;37.436;2022-08-19T12:21:39;8.80;;;2.50;;
65162;SDS011;51751;55.714;37.436;2022-08-19T12:24:06;23.08;;;2.92;;
65162;SDS011;51751;55.714;37.436;2022-08-19T12:26:32;4.45;;;2.15;;
65162;SDS011;51751;55.714;37.436;2022-08-19T12:28:59;10.52;;;2.90;;
65162;SDS011;51751;55.714;37.436;2022-08-19T12:31:26;10.13;;;2.90;;
65162;SDS011;51751;55.714;37.436;2022-08-19T12:33:53;10.88;;;3.00;;
65162;SDS011;51751;55.714;37.436;2022-08-19T12:36:21;8.57;;;2.60;;
65162;SDS011;51751;55.714;37.436;2022-08-19T12:38:50;14.07;;;2.90;;
65162;SDS011;51751;55.714;37.436;2022-08-19T12:41:18;7.60;;;2.50;;
65162;SDS011;51751;55.714;37.436;2022-08-19T12:43:46;12.88;;;2.92;;
65162;SDS011;51751;55.714;37.436;2022-08-19T12:46:14;15.57;;;3.00;;
65162;SDS011;51751;55.714;37.436;2022-08-19T12:48:40;10.68;;;3.42;;
65162;SDS011;51751;55.714;37.436;2022-08-19T12:51:11;12.10;;;3.13;;
65162;SDS011;51751;55.714;37.436;2022-08-19T12:53:47;15.13;;;2.90;;
65162;SDS011;51751;55.714;37.436;2022-08-19T12:56:15;27.33;;;3.63;;
65162;SDS011;51751;55.714;37.436;2022-08-19T12:58:42;11.30;;;2.70;;
65162;SDS011;51751;55.714;37.436;2022-08-19T13:01:27;39.30;;;4.57;;
65162;SDS011;51751;55.714;37.436;2022-08-19T13:03:55;42.78;;;6.50;;
65162;SDS011;51751;55.714;37.436;2022-08-19T13:06:21;13.02;;;3.13;;
65162;SDS011;51751;55.714;37.436;2022-08-19T13:08:48;18.08;;;3.25;;
65162;SDS011;51751;55.714;37.436;2022-08-19T13:11:16;9.18;;;3.45;;
65162;SDS011;51751;55.714;37.436;2022-08-19T13:13:45;14.55;;;3.50;;
65162;SDS011;51751;55.714;37.436;2022-08-19T13:16:13;13.63;;;3.45;;
65162;SDS011;51751;55.714;37.436;2022-08-19T13:18:42;11.55;;;3.40;;
65162;SDS011;51751;55.714;37.436;2022-08-19T13:21:11;15.13;;;3.83;;
65162;SDS011;51751;55.714;37.436;2022-08-19T13:23:41;16.50;;;3.13;;
65162;SDS011;51751;55.714;37.436;2022-08-19T13:26:10;8.40;;;3.10;;
65162;SDS011;51751;55.714;37.436;2022-08-19T13:28:40;12.93;;;2.97;;
65162;SDS011;51751;55.714;37.436;2022-08-19T13:31:29;12.93;;;3.72;;
65162;SDS011;51751;55.714;37.436;2022-08-19T13:34:15;16.10;;;4.10;;
65162;SDS011;51751;55.714;37.436;2022-08-19T13:36:42;18.02;;;4.97;;
65162;SDS011;51751;55.714;37.436;2022-08-19T13:39:08;19.48;;;5.10;;
65162;SDS011;51751;55.714;37.436;2022-08-19T13:41:35;16.70;;;5.68;;
65162;SDS011;51751;55.714;37.436;2022-08-19T13:44:02;11.98;;;5.10;;
65162;SDS011;51751;55.714;37.436;2022-08-19T13:46:29;10.73;;;4.95;;
65162;SDS011;51751;55.714;37.436;2022-08-19T13:48:57;16.17;;;5.10;;
65162;SDS011;51751;55.714;37.436;2022-08-19T13:51:23;14.32;;;5.38;;
65162;SDS011;51751;55.714;37.436;2022-08-19T13:53:52;19.08;;;5.15;;
65162;SDS011;51751;55.714;37.436;2022-08-19T13:56:21;24.33;;;4.70;;
65162;SDS011;51751;55.714;37.436;2022-08-19T13:58:47;13.75;;;3.97;;
65162;SDS011;51751;55.714;37.436;2022-08-19T14:01:18;18.45;;;3.70;;
65162;SDS011;51751;55.714;37.436;2022-08-19T14:03:45;11.88;;;3.42;;
65162;SDS011;51751;55.714;37.436;2022-08-19T14:06:11;14.48;;;3.33;;
65162;SDS011;51751;55.714;37.436;2022-08-19T14:08:37;12.82;;;3.25;;
65162;SDS011;51751;55.714;37.436;2022-08-19T14:11:07;13.13;;;3.20;;
65162;SDS011;51751;55.714;37.436;2022-08-19T14:13:33;8.60;;;3.50;;
65162;SDS011;51751;55.714;37.436;2022-08-19T14:16:00;10.90;;;2.92;;
65162;SDS011;51751;55.714;37.436;2022-08-19T14:18:28;15.85;;;3.15;;
65162;SDS011;51751;55.714;37.436;2022-08-19T14:20:54;15.15;;;4.88;;
65162;SDS011;51751;55.714;37.436;2022-08-19T14:23:24;26.05;;;7.65;;
65162;SDS011;51751;55.714;37.436;2022-08-19T14:25:50;11.60;;;6.45;;
65162;SDS011;51751;55.714;37.436;2022-08-19T14:28:16;16.13;;;7.93;;
65162;SDS011;51751;55.714;37.436;2022-08-19T14:30:42;15.27;;;7.50;;
65162;SDS011;51751;55.714;37.436;2022-08-19T14:33:10;24.70;;;7.78;;
65162;SDS011;51751;55.714;37.436;2022-08-19T14:35:38;14.60;;;7.57;;
65162;SDS011;51751;55.714;37.436;2022-08-19T14:38:14;13.75;;;6.70;;
65162;SDS011;51751;55.714;37.436;2022-08-19T14:40:45;10.45;;;5.35;;
65162;SDS011;51751;55.714;37.436;2022-08-19T14:43:12;15.07;;;7.30;;
65162;SDS011;51751;55.714;37.436;2022-08-19T14:45:38;18.85;;;7.22;;
65162;SDS011;51751;55.714;37.436;2022-08-19T14:48:05;16.48;;;7.68;;
65162;SDS011;51751;55.714;37.436;2022-08-19T14:50:33;24.15;;;9.02;;